Whiting Field Naval Air Station South Airport Milton US
ICAO: KNDZ
IATA: NDZ
Category: Medium
Scheduled Services: No

Elevation: 177 ft
TransAlt. 18000 ft.

Airport Communications:
PENSACOLA APP/DEP:124.85
ATIS:27.357
CLNC DEL:35.56
GND:34.68
BASE OPS:23.37
PMSV METRO:31.695
TWR:121.4

KNDZ Zoom In..

Runways:

(A) RW 05 length 5997 ft width 200 ft
---- / hdg 49

(B) RW 14 length 6001 ft width 200 ft
---- / hdg 139

(C) RW 23 length 5997 ft width 200 ft
---- / hdg 229

(D) RW 32 length 6001 ft width 200 ft
ILS 110.55 / hdg 319

Location; KNDZ
Day. 21 / Time. 23.56 Zulu
* Altimeter: 30.09
* Temperature: 22° c. 71.6°f.
* Wind from: 170° Speed 05 kn.
Dewpoint: 18° c.
Visibility: 10 Statute Miles.
Clouds: Broken 3600 ft.

KNDZ 212356Z AUTO 17005KT 10SM BKN036 22/18 A3009 RMK AO2 SLP178 T02170183 10244 20217 58008 $


Wind From 170°
Speed 05 kn.

  YouTube Music Video
 
jpsmedia.com for Web Design  worldairports.se 2018   terms of use